Time;durP1;ratioP1;P1;durP2;ratioP2;P2;SDS_P1;SDS_P2;PMS_P1;PMS_P2;Temp;Humidity;BMP_temperature;BMP_pressure;BME280_temperature;BME280_humidity;BME280_pressure;Samples;Min_cycle;Max_cycle;Signal;HPM_P1;HPM_P2
2023/06/09 00:01:58;;;;;;;17.67;6.53;;;;;;;;;;4913447;29;20075;-56
2023/06/09 00:04:26;;;;;;;14.52;5.88;;;;;;;;;;4899705;29;20044;-55
2023/06/09 00:06:52;;;;;;;17.20;5.93;;;;;;;;;;4922245;29;20634;-55
2023/06/09 00:09:21;;;;;;;13.10;5.72;;;;;;;;;;4916687;29;20103;-56
2023/06/09 00:11:48;;;;;;;14.07;5.93;;;;;;;;;;4912463;29;20040;-56
2023/06/09 00:14:14;;;;;;;13.95;5.65;;;;;;;;;;4898885;29;20047;-55
2023/06/09 00:16:45;;;;;;;11.32;5.38;;;;;;;;;;4915686;29;20047;-55
2023/06/09 00:19:11;;;;;;;17.45;6.18;;;;;;;;;;4910752;29;20055;-54
2023/06/09 00:21:37;;;;;;;16.10;5.82;;;;;;;;;;4915918;29;20048;-56
2023/06/09 00:24:04;;;;;;;12.98;5.38;;;;;;;;;;4916564;29;20036;-55
2023/06/09 00:26:30;;;;;;;13.10;5.03;;;;;;;;;;4916675;29;20442;-56
2023/06/09 00:28:56;;;;;;;18.35;6.10;;;;;;;;;;4909328;29;20433;-55
2023/06/09 00:31:22;;;;;;;15.98;5.53;;;;;;;;;;4916030;29;20555;-54
2023/06/09 00:33:48;;;;;;;13.65;5.70;;;;;;;;;;4915606;29;20135;-56
2023/06/09 00:36:14;;;;;;;15.95;6.07;;;;;;;;;;4916474;29;20040;-54
2023/06/09 00:38:41;;;;;;;15.25;5.60;;;;;;;;;;4914885;29;20090;-56
2023/06/09 00:41:07;;;;;;;14.18;5.72;;;;;;;;;;4914562;29;20044;-56
2023/06/09 00:43:33;;;;;;;16.35;5.10;;;;;;;;;;4922342;29;20054;-57
2023/06/09 00:46:05;;;;;;;14.13;5.57;;;;;;;;;;4916196;29;20098;-55
2023/06/09 00:48:32;;;;;;;17.88;7.10;;;;;;;;;;4895089;29;20051;-57
2023/06/09 00:50:58;;;;;;;11.77;5.68;;;;;;;;;;4912973;29;20119;-55
2023/06/09 00:53:25;;;;;;;14.60;5.63;;;;;;;;;;4918080;29;20052;-55
2023/06/09 00:55:51;;;;;;;19.60;5.63;;;;;;;;;;4918537;29;20615;-55
2023/06/09 00:58:18;;;;;;;15.57;6.22;;;;;;;;;;4899286;29;20085;-56
2023/06/09 01:00:44;;;;;;;15.95;5.82;;;;;;;;;;4912544;29;20050;-55
2023/06/09 01:03:10;;;;;;;16.58;5.93;;;;;;;;;;4916366;29;20055;-55
2023/06/09 01:05:37;;;;;;;17.38;7.43;;;;;;;;;;4917060;29;20039;-55
2023/06/09 01:08:15;;;;;;;13.30;6.22;;;;;;;;;;4918213;29;20082;-56
2023/06/09 01:10:56;;;;;;;18.42;6.05;;;;;;;;;;4908233;29;20145;-55
2023/06/09 01:13:26;;;;;;;14.93;6.32;;;;;;;;;;4900541;29;20468;-55
2023/06/09 01:15:56;;;;;;;14.90;6.68;;;;;;;;;;4921880;29;20040;-57
2023/06/09 01:18:24;;;;;;;18.38;7.15;;;;;;;;;;4898020;29;20044;-55
2023/06/09 01:20:56;;;;;;;14.05;6.60;;;;;;;;;;4899061;29;20059;-57
2023/06/09 01:23:32;;;;;;;15.00;6.80;;;;;;;;;;4912894;29;20106;-55
2023/06/09 01:25:59;;;;;;;17.95;6.88;;;;;;;;;;4905698;29;20545;-56
2023/06/09 01:28:26;;;;;;;12.57;5.78;;;;;;;;;;4916872;29;20098;-56
2023/06/09 01:30:53;;;;;;;15.77;6.90;;;;;;;;;;4916317;29;20095;-56
2023/06/09 01:33:23;;;;;;;19.23;7.43;;;;;;;;;;4912529;29;20514;-56
2023/06/09 01:35:50;;;;;;;16.02;6.25;;;;;;;;;;4914393;29;20047;-56
2023/06/09 01:38:18;;;;;;;14.82;6.88;;;;;;;;;;4924532;29;20460;-56
2023/06/09 01:40:44;;;;;;;13.75;6.20;;;;;;;;;;4915334;29;20525;-56
2023/06/09 01:43:10;;;;;;;16.67;6.82;;;;;;;;;;4883587;29;20551;-54
2023/06/09 01:45:36;;;;;;;13.18;6.00;;;;;;;;;;4914133;29;20047;-57
2023/06/09 01:48:08;;;;;;;14.43;6.18;;;;;;;;;;4915333;29;20374;-58
2023/06/09 01:50:38;;;;;;;16.20;6.60;;;;;;;;;;4917105;29;20036;-57
2023/06/09 01:53:05;;;;;;;15.98;6.80;;;;;;;;;;4905317;29;20138;-56
2023/06/09 01:55:37;;;;;;;14.70;6.70;;;;;;;;;;4897658;29;20355;-57
2023/06/09 01:58:03;;;;;;;15.20;6.35;;;;;;;;;;4915588;29;20449;-54
2023/06/09 02:00:30;;;;;;;18.27;6.32;;;;;;;;;;4899628;29;20051;-56
2023/06/09 02:02:58;;;;;;;16.60;6.95;;;;;;;;;;4915712;29;20062;-57
2023/06/09 02:05:24;;;;;;;15.20;6.18;;;;;;;;;;4901076;29;20043;-57
2023/06/09 02:07:53;;;;;;;13.57;7.15;;;;;;;;;;4912723;29;20509;-58
2023/06/09 02:10:20;;;;;;;13.02;5.75;;;;;;;;;;4898548;29;20058;-57
2023/06/09 02:12:46;;;;;;;16.95;6.45;;;;;;;;;;4916379;29;20427;-57
2023/06/09 02:15:12;;;;;;;11.25;5.65;;;;;;;;;;4901018;29;20422;-57
2023/06/09 02:17:42;;;;;;;15.27;5.85;;;;;;;;;;4913763;29;20035;-57
2023/06/09 02:20:09;;;;;;;15.10;6.82;;;;;;;;;;4919265;29;20586;-56
2023/06/09 02:22:35;;;;;;;16.08;6.82;;;;;;;;;;4897757;29;20549;-57
2023/06/09 02:25:03;;;;;;;12.38;5.93;;;;;;;;;;4918883;29;20051;-57
2023/06/09 02:27:29;;;;;;;12.52;6.07;;;;;;;;;;4920653;29;20483;-57
2023/06/09 02:29:55;;;;;;;17.50;6.20;;;;;;;;;;4919371;29;20044;-57
2023/06/09 02:32:22;;;;;;;19.58;6.20;;;;;;;;;;4919481;29;20047;-55
2023/06/09 02:34:48;;;;;;;16.20;6.90;;;;;;;;;;4914783;29;20043;-57
2023/06/09 02:37:14;;;;;;;14.52;6.18;;;;;;;;;;4920324;29;20079;-53
2023/06/09 02:39:40;;;;;;;15.82;6.68;;;;;;;;;;4918895;29;20043;-56
2023/06/09 02:42:07;;;;;;;17.40;6.47;;;;;;;;;;4918651;29;20486;-55
2023/06/09 02:44:33;;;;;;;16.48;6.32;;;;;;;;;;4916064;29;20131;-54
2023/06/09 02:46:59;;;;;;;15.35;5.72;;;;;;;;;;4921908;29;20154;-56
2023/06/09 02:49:25;;;;;;;14.48;6.15;;;;;;;;;;4901917;29;20051;-57
2023/06/09 02:51:51;;;;;;;14.20;6.35;;;;;;;;;;4900139;29;20293;-56
2023/06/09 02:54:18;;;;;;;13.18;6.18;;;;;;;;;;4926351;29;20432;-56
2023/06/09 02:56:44;;;;;;;14.98;5.88;;;;;;;;;;4898488;29;20339;-56
2023/06/09 02:59:10;;;;;;;16.58;7.25;;;;;;;;;;4928265;29;20505;-55
2023/06/09 03:01:36;;;;;;;15.13;7.55;;;;;;;;;;4898765;29;20462;-56
2023/06/09 03:04:06;;;;;;;13.27;6.85;;;;;;;;;;4916455;29;20379;-55
2023/06/09 03:06:33;;;;;;;20.05;7.35;;;;;;;;;;4910776;29;20564;-56
2023/06/09 03:09:02;;;;;;;20.60;7.03;;;;;;;;;;4909419;29;20525;-55
2023/06/09 03:11:28;;;;;;;14.25;7.28;;;;;;;;;;4903587;29;20048;-56
2023/06/09 03:13:54;;;;;;;13.90;7.10;;;;;;;;;;4900320;29;20039;-56
2023/06/09 03:16:21;;;;;;;14.40;7.10;;;;;;;;;;4988199;23;20073;-69
2023/06/09 03:18:47;;;;;;;15.50;7.82;;;;;;;;;;4940916;28;20043;-69
2023/06/09 03:21:13;;;;;;;16.92;7.82;;;;;;;;;;4958432;28;20049;-69
2023/06/09 03:23:43;;;;;;;16.58;6.78;;;;;;;;;;4934556;28;20035;-69
2023/06/09 03:26:09;;;;;;;16.90;6.80;;;;;;;;;;4934884;29;20055;-69
2023/06/09 03:28:35;;;;;;;15.30;6.72;;;;;;;;;;4936665;28;20047;-69
2023/06/09 03:31:01;;;;;;;13.48;7.00;;;;;;;;;;4954084;28;20102;-69
2023/06/09 03:33:27;;;;;;;17.98;6.60;;;;;;;;;;4935243;28;20401;-69
2023/06/09 03:35:54;;;;;;;14.50;7.05;;;;;;;;;;4920163;29;20039;-69
2023/06/09 03:38:20;;;;;;;15.90;6.93;;;;;;;;;;4936647;28;20050;-69
2023/06/09 03:40:46;;;;;;;16.73;7.05;;;;;;;;;;4936877;28;20130;-69
2023/06/09 03:43:12;;;;;;;15.98;6.47;;;;;;;;;;4952790;28;20404;-69
2023/06/09 03:45:39;;;;;;;10.82;5.70;;;;;;;;;;4965213;23;20053;-62
2023/06/09 03:48:06;;;;;;;15.88;7.13;;;;;;;;;;4956619;28;20061;-62
2023/06/09 03:50:32;;;;;;;12.70;5.63;;;;;;;;;;4969804;28;20062;-62
2023/06/09 03:52:58;;;;;;;13.05;6.32;;;;;;;;;;4953661;28;20516;-62
2023/06/09 03:57:57;;;;;;;14.85;6.57;;;;;;;;;;4976058;23;20109;-62
2023/06/09 04:00:23;;;;;;;15.57;6.78;;;;;;;;;;4929554;29;20420;-62
2023/06/09 04:02:49;;;;;;;19.17;7.20;;;;;;;;;;4939027;29;20101;-63
2023/06/09 04:05:16;;;;;;;15.50;6.82;;;;;;;;;;4935191;28;20413;-62
2023/06/09 04:07:42;;;;;;;16.25;7.13;;;;;;;;;;4946398;29;20042;-62
2023/06/09 04:10:08;;;;;;;14.10;7.57;;;;;;;;;;4947078;29;20037;-62
2023/06/09 04:12:34;;;;;;;15.60;6.43;;;;;;;;;;4943849;28;20516;-62
2023/06/09 04:15:00;;;;;;;17.50;7.13;;;;;;;;;;4950828;28;20036;-62
2023/06/09 04:17:27;;;;;;;13.30;6.95;;;;;;;;;;4928839;29;20043;-62
2023/06/09 04:19:54;;;;;;;15.75;6.63;;;;;;;;;;4912607;29;20130;-62
2023/06/09 04:22:21;;;;;;;19.90;7.05;;;;;;;;;;4950801;28;20053;-62
2023/06/09 04:24:47;;;;;;;16.10;6.65;;;;;;;;;;4948404;28;20031;-62
2023/06/09 04:27:15;;;;;;;15.15;7.13;;;;;;;;;;4943760;23;20042;-58
2023/06/09 04:29:41;;;;;;;17.63;6.35;;;;;;;;;;4968712;28;20070;-57
2023/06/09 04:32:09;;;;;;;15.63;7.15;;;;;;;;;;4969030;28;20047;-56
2023/06/09 04:34:38;;;;;;;20.15;7.72;;;;;;;;;;4970943;28;20047;-55
2023/06/09 04:37:04;;;;;;;16.73;6.78;;;;;;;;;;4953480;28;20077;-53
2023/06/09 04:39:30;;;;;;;15.25;6.28;;;;;;;;;;4969231;28;20106;-56
2023/06/09 04:41:56;;;;;;;15.13;6.07;;;;;;;;;;4967699;28;20650;-55
2023/06/09 04:44:23;;;;;;;13.43;6.68;;;;;;;;;;4964834;28;20118;-56
2023/06/09 04:46:49;;;;;;;15.38;6.35;;;;;;;;;;4943177;28;20118;-58
2023/06/09 04:49:16;;;;;;;20.15;7.55;;;;;;;;;;4967617;28;20648;-57
2023/06/09 04:51:46;;;;;;;18.45;7.40;;;;;;;;;;4956684;28;20043;-57
2023/06/09 04:54:25;;;;;;;18.60;7.30;;;;;;;;;;4961193;28;20043;-55
2023/06/09 04:56:57;;;;;;;16.92;7.72;;;;;;;;;;4961175;28;20114;-57
2023/06/09 04:59:30;;;;;;;17.10;6.47;;;;;;;;;;4935879;28;20047;-58
2023/06/09 05:01:56;;;;;;;18.27;7.68;;;;;;;;;;4959514;28;20524;-58
2023/06/09 05:04:22;;;;;;;17.05;6.93;;;;;;;;;;4967665;28;20517;-58
2023/06/09 05:06:48;;;;;;;11.85;6.93;;;;;;;;;;4958292;28;20035;-58
2023/06/09 05:09:14;;;;;;;16.13;6.75;;;;;;;;;;4969710;28;20043;-57
2023/06/09 05:11:40;;;;;;;20.42;6.93;;;;;;;;;;4956976;28;20035;-57
2023/06/09 05:14:06;;;;;;;17.25;6.90;;;;;;;;;;4966954;28;20417;-55
2023/06/09 05:16:34;;;;;;;16.92;6.28;;;;;;;;;;4953460;28;20063;-55
2023/06/09 05:19:00;;;;;;;15.80;6.63;;;;;;;;;;4945732;28;20047;-58
2023/06/09 05:21:27;;;;;;;15.45;6.85;;;;;;;;;;4949166;28;20047;-58
2023/06/09 05:23:53;;;;;;;20.15;7.93;;;;;;;;;;4965537;28;20057;-57
2023/06/09 05:26:19;;;;;;;13.02;6.85;;;;;;;;;;4953250;28;20059;-57
2023/06/09 05:28:45;;;;;;;16.40;6.38;;;;;;;;;;4942773;28;20095;-53
2023/06/09 05:31:11;;;;;;;14.75;5.50;;;;;;;;;;4952903;28;20043;-56
2023/06/09 05:33:38;;;;;;;14.65;6.03;;;;;;;;;;4968882;28;20042;-57
2023/06/09 05:36:04;;;;;;;14.05;5.60;;;;;;;;;;4965527;28;20440;-54
2023/06/09 05:38:30;;;;;;;15.40;6.43;;;;;;;;;;4970349;28;20050;-57
2023/06/09 05:40:56;;;;;;;15.90;6.15;;;;;;;;;;4952486;28;20109;-57
2023/06/09 05:43:26;;;;;;;17.20;6.32;;;;;;;;;;4961478;28;20114;-55
2023/06/09 05:45:52;;;;;;;17.42;6.60;;;;;;;;;;4950634;28;20508;-55
2023/06/09 05:48:18;;;;;;;13.68;6.03;;;;;;;;;;4972338;28;20125;-53
2023/06/09 05:50:46;;;;;;;12.30;5.72;;;;;;;;;;4971382;28;20054;-54
2023/06/09 05:53:12;;;;;;;17.40;6.43;;;;;;;;;;4973090;28;20116;-55
2023/06/09 05:55:38;;;;;;;14.73;6.47;;;;;;;;;;4972387;28;20053;-55
2023/06/09 05:58:04;;;;;;;16.40;7.05;;;;;;;;;;4973588;28;20125;-55
2023/06/09 06:00:30;;;;;;;12.73;6.60;;;;;;;;;;4932158;28;20501;-55
2023/06/09 06:03:00;;;;;;;15.48;6.90;;;;;;;;;;4971051;28;20046;-56
2023/06/09 06:05:26;;;;;;;14.32;6.03;;;;;;;;;;4955529;28;20093;-56
2023/06/09 06:07:52;;;;;;;14.38;6.18;;;;;;;;;;4952477;28;20082;-58
2023/06/09 06:10:18;;;;;;;15.70;6.60;;;;;;;;;;4950355;28;20054;-57
2023/06/09 06:12:45;;;;;;;13.18;5.80;;;;;;;;;;4962014;28;20118;-57
2023/06/09 06:15:11;;;;;;;15.32;6.50;;;;;;;;;;4970302;28;20122;-57
2023/06/09 06:17:37;;;;;;;13.80;5.90;;;;;;;;;;4971265;28;20054;-57
2023/06/09 06:20:05;;;;;;;16.23;5.75;;;;;;;;;;4970074;28;20039;-56
2023/06/09 06:22:31;;;;;;;12.18;5.38;;;;;;;;;;4963458;28;20049;-57
2023/06/09 06:24:57;;;;;;;13.85;5.95;;;;;;;;;;4955281;28;20122;-56
2023/06/09 06:27:23;;;;;;;14.02;6.30;;;;;;;;;;4964002;28;20840;-57
2023/06/09 06:29:49;;;;;;;12.98;5.60;;;;;;;;;;4964410;28;20190;-56
2023/06/09 06:32:15;;;;;;;11.32;5.70;;;;;;;;;;4953039;28;20078;-57
2023/06/09 06:34:41;;;;;;;13.65;5.85;;;;;;;;;;4952078;28;20050;-57
2023/06/09 06:37:07;;;;;;;14.05;5.47;;;;;;;;;;4972516;28;20039;-57
2023/06/09 06:39:33;;;;;;;14.70;5.90;;;;;;;;;;4954689;28;20523;-57
2023/06/09 06:42:00;;;;;;;14.63;6.00;;;;;;;;;;4970556;28;20049;-57
2023/06/09 06:44:26;;;;;;;14.45;5.78;;;;;;;;;;4954715;28;20579;-56
2023/06/09 06:46:52;;;;;;;12.90;5.82;;;;;;;;;;4969310;28;20074;-57
2023/06/09 06:49:18;;;;;;;17.52;6.07;;;;;;;;;;4970410;28;20049;-56
2023/06/09 06:51:44;;;;;;;12.77;5.28;;;;;;;;;;4966414;28;20031;-56
2023/06/09 06:54:10;;;;;;;13.52;6.18;;;;;;;;;;4954765;28;20382;-56
2023/06/09 06:56:36;;;;;;;12.40;5.18;;;;;;;;;;4954131;28;20097;-55
2023/06/09 06:59:02;;;;;;;12.68;7.15;;;;;;;;;;4967685;28;20035;-57
2023/06/09 07:01:29;;;;;;;13.95;6.22;;;;;;;;;;4968042;28;20046;-56
2023/06/09 07:03:56;;;;;;;12.32;5.65;;;;;;;;;;4968624;28;20043;-56
2023/06/09 07:06:22;;;;;;;18.23;6.78;;;;;;;;;;4972238;28;20042;-56
2023/06/09 07:08:49;;;;;;;15.60;6.43;;;;;;;;;;4937130;28;21246;-56
2023/06/09 07:11:15;;;;;;;15.70;6.38;;;;;;;;;;4972058;28;20046;-57
2023/06/09 07:13:41;;;;;;;10.15;5.22;;;;;;;;;;4953896;28;20065;-57
2023/06/09 07:16:07;;;;;;;13.43;5.72;;;;;;;;;;4971624;28;20051;-56
2023/06/09 07:18:34;;;;;;;17.25;6.05;;;;;;;;;;4971286;28;20636;-55
2023/06/09 07:21:00;;;;;;;16.33;6.38;;;;;;;;;;4968312;28;20042;-57
2023/06/09 07:23:26;;;;;;;12.23;5.47;;;;;;;;;;4954202;28;20046;-56
2023/06/09 07:25:52;;;;;;;14.88;5.70;;;;;;;;;;4971427;28;20160;-57
2023/06/09 07:28:18;;;;;;;12.50;5.57;;;;;;;;;;4970315;28;20094;-56
2023/06/09 07:30:44;;;;;;;11.73;5.75;;;;;;;;;;4949450;28;20042;-57
2023/06/09 07:33:10;;;;;;;11.45;5.32;;;;;;;;;;4953390;28;20062;-56
2023/06/09 07:35:36;;;;;;;11.45;6.00;;;;;;;;;;4953696;28;20493;-56
2023/06/09 07:38:03;;;;;;;12.93;5.15;;;;;;;;;;4967154;28;20119;-55
2023/06/09 07:40:29;;;;;;;14.43;5.95;;;;;;;;;;4966442;28;20054;-56
2023/06/09 07:42:56;;;;;;;11.98;5.35;;;;;;;;;;4969760;28;20045;-57
2023/06/09 07:45:22;;;;;;;14.13;5.68;;;;;;;;;;4971321;28;20497;-57
2023/06/09 07:47:48;;;;;;;15.30;6.07;;;;;;;;;;4970861;28;20296;-56
2023/06/09 07:50:15;;;;;;;11.70;5.78;;;;;;;;;;4948177;29;20043;-57
2023/06/09 07:52:41;;;;;;;13.80;5.13;;;;;;;;;;4968214;28;20046;-55
2023/06/09 07:55:07;;;;;;;16.73;6.45;;;;;;;;;;4945043;28;20066;-57
2023/06/09 07:57:33;;;;;;;14.07;5.90;;;;;;;;;;4964985;28;20109;-56
2023/06/09 07:59:59;;;;;;;12.15;5.50;;;;;;;;;;4970098;28;20117;-57
2023/06/09 08:02:26;;;;;;;14.07;5.95;;;;;;;;;;4948041;28;20478;-56
2023/06/09 08:04:52;;;;;;;15.23;5.40;;;;;;;;;;4968040;28;20418;-57
2023/06/09 08:07:18;;;;;;;13.63;6.25;;;;;;;;;;4965067;28;20043;-57
2023/06/09 08:09:44;;;;;;;11.82;5.43;;;;;;;;;;4968629;28;20093;-56
2023/06/09 08:12:11;;;;;;;13.48;5.15;;;;;;;;;;4970571;28;20039;-57
2023/06/09 08:14:38;;;;;;;16.15;6.35;;;;;;;;;;4970497;28;20432;-57
2023/06/09 08:17:05;;;;;;;18.77;7.60;;;;;;;;;;4951328;28;20097;-57
2023/06/09 08:19:31;;;;;;;15.07;6.22;;;;;;;;;;4943445;29;20406;-56
2023/06/09 08:21:57;;;;;;;15.93;6.68;;;;;;;;;;4950164;28;20205;-57
2023/06/09 08:24:24;;;;;;;14.35;6.72;;;;;;;;;;4969145;28;20045;-56
2023/06/09 08:26:51;;;;;;;14.20;5.90;;;;;;;;;;4969908;28;20039;-56
2023/06/09 08:29:18;;;;;;;9.80;5.25;;;;;;;;;;4949506;28;20125;-57
2023/06/09 08:31:44;;;;;;;14.38;6.47;;;;;;;;;;4945837;28;20057;-57
2023/06/09 08:34:10;;;;;;;16.45;5.90;;;;;;;;;;4965377;28;20035;-57
2023/06/09 08:36:36;;;;;;;16.48;5.95;;;;;;;;;;4964905;28;20050;-56
2023/06/09 08:39:02;;;;;;;12.50;5.10;;;;;;;;;;4962277;28;20117;-57
2023/06/09 08:41:32;;;;;;;14.00;5.82;;;;;;;;;;4970358;28;20042;-57
2023/06/09 08:43:58;;;;;;;15.05;5.97;;;;;;;;;;4969017;28;20042;-55
2023/06/09 08:46:25;;;;;;;17.02;5.80;;;;;;;;;;4959072;28;20408;-57
2023/06/09 08:48:55;;;;;;;14.52;7.00;;;;;;;;;;4970137;28;20053;-57
2023/06/09 08:51:21;;;;;;;15.20;6.70;;;;;;;;;;4961924;28;20516;-57
2023/06/09 08:53:51;;;;;;;10.60;4.97;;;;;;;;;;4968841;28;20046;-57
2023/06/09 08:56:17;;;;;;;11.18;4.78;;;;;;;;;;4966537;28;20101;-57
2023/06/09 08:58:44;;;;;;;13.90;6.07;;;;;;;;;;4947288;28;20061;-57
2023/06/09 09:01:10;;;;;;;27.25;9.98;;;;;;;;;;4969572;28;20493;-57
2023/06/09 09:03:36;;;;;;;14.50;6.40;;;;;;;;;;4951696;28;20035;-57
2023/06/09 09:06:02;;;;;;;13.85;5.20;;;;;;;;;;4959955;28;20129;-57
2023/06/09 09:08:28;;;;;;;50.17;13.30;;;;;;;;;;4970279;28;20507;-56
2023/06/09 09:10:54;;;;;;;74.57;15.55;;;;;;;;;;4966132;28;20076;-57
2023/06/09 09:13:24;;;;;;;12.63;5.22;;;;;;;;;;4956533;28;20209;-57
2023/06/09 09:15:51;;;;;;;13.27;5.60;;;;;;;;;;4959602;28;20034;-56
2023/06/09 09:18:19;;;;;;;11.70;5.25;;;;;;;;;;4958647;28;20494;-57
2023/06/09 09:20:45;;;;;;;15.05;5.60;;;;;;;;;;4964802;28;20042;-57
2023/06/09 09:23:11;;;;;;;47.03;9.95;;;;;;;;;;4965225;28;20038;-57
2023/06/09 09:25:38;;;;;;;14.05;4.93;;;;;;;;;;4951338;28;20123;-58
2023/06/09 09:28:08;;;;;;;13.70;5.95;;;;;;;;;;4957389;28;20129;-56
2023/06/09 09:30:40;;;;;;;12.88;5.15;;;;;;;;;;4953657;28;20106;-56
2023/06/09 09:33:09;;;;;;;11.40;4.93;;;;;;;;;;4971449;28;20039;-57
2023/06/09 09:35:39;;;;;;;10.27;4.72;;;;;;;;;;4952912;28;20396;-57
2023/06/09 09:38:11;;;;;;;14.90;6.70;;;;;;;;;;4940353;29;20039;-57
2023/06/09 09:40:42;;;;;;;10.85;5.22;;;;;;;;;;4962430;28;20066;-60
2023/06/09 09:43:11;;;;;;;15.75;5.22;;;;;;;;;;4973553;28;20055;-57
2023/06/09 09:45:39;;;;;;;13.77;6.00;;;;;;;;;;4962052;28;20050;-57
2023/06/09 09:48:12;;;;;;;13.13;5.22;;;;;;;;;;4944581;28;20520;-56
2023/06/09 09:50:42;;;;;;;14.05;5.60;;;;;;;;;;4957863;28;20054;-59
2023/06/09 09:53:08;;;;;;;12.77;5.55;;;;;;;;;;4973733;28;20042;-57
2023/06/09 09:55:35;;;;;;;10.27;5.43;;;;;;;;;;4974515;28;20167;-58
2023/06/09 09:58:04;;;;;;;10.63;5.30;;;;;;;;;;4952210;28;20047;-56
2023/06/09 10:00:32;;;;;;;15.20;5.47;;;;;;;;;;4960840;28;20165;-57
2023/06/09 10:03:00;;;;;;;10.10;5.45;;;;;;;;;;4972665;28;20544;-57
2023/06/09 10:05:31;;;;;;;11.40;5.43;;;;;;;;;;4974016;28;20047;-53
2023/06/09 10:08:00;;;;;;;12.32;5.40;;;;;;;;;;4955324;28;20047;-56
2023/06/09 10:10:26;;;;;;;10.82;4.78;;;;;;;;;;4972701;28;20055;-58
2023/06/09 10:12:53;;;;;;;13.07;5.80;;;;;;;;;;4970890;28;20035;-57
2023/06/09 10:15:20;;;;;;;11.43;5.38;;;;;;;;;;4964099;28;20039;-57
2023/06/09 10:17:48;;;;;;;12.75;5.40;;;;;;;;;;4972376;28;20050;-57
2023/06/09 10:20:14;;;;;;;10.48;5.28;;;;;;;;;;4962801;28;20437;-57
2023/06/09 10:22:41;;;;;;;13.68;6.05;;;;;;;;;;4967988;28;20460;-58
2023/06/09 10:25:08;;;;;;;15.00;6.15;;;;;;;;;;4970512;28;20043;-58
2023/06/09 10:27:34;;;;;;;12.98;5.53;;;;;;;;;;4973397;28;20481;-57
2023/06/09 10:30:01;;;;;;;11.95;6.22;;;;;;;;;;4960855;28;20211;-57
2023/06/09 10:32:28;;;;;;;12.95;5.38;;;;;;;;;;4949005;28;20044;-57
2023/06/09 10:34:56;;;;;;;16.63;5.50;;;;;;;;;;4963211;28;20050;-57
2023/06/09 10:37:28;;;;;;;13.18;5.68;;;;;;;;;;5003270;23;20034;-63
2023/06/09 10:40:00;;;;;;;13.02;6.63;;;;;;;;;;4967779;28;20046;-63
2023/06/09 10:42:39;;;;;;;15.77;6.40;;;;;;;;;;4971555;28;20054;-63
2023/06/09 10:45:15;;;;;;;11.52;5.57;;;;;;;;;;4960077;28;20054;-63
2023/06/09 10:47:43;;;;;;;13.05;5.50;;;;;;;;;;4957236;28;20063;-63
2023/06/09 10:50:24;;;;;;;10.07;5.10;;;;;;;;;;4951082;29;20051;-62
2023/06/09 10:52:54;;;;;;;12.73;6.70;;;;;;;;;;4942824;28;20035;-63
2023/06/09 10:55:22;;;;;;;15.80;5.53;;;;;;;;;;4936431;29;20042;-63
2023/06/09 10:57:48;;;;;;;12.98;5.28;;;;;;;;;;4953195;28;20505;-62
2023/06/09 11:00:15;;;;;;;38.55;11.15;;;;;;;;;;4953309;29;20049;-62
2023/06/09 11:02:48;;;;;;;13.40;5.05;;;;;;;;;;4925993;29;20500;-61
2023/06/09 11:05:15;;;;;;;10.65;5.00;;;;;;;;;;4948817;28;20454;-62
2023/06/09 11:07:48;;;;;;;13.98;5.53;;;;;;;;;;4930515;28;20055;-61
2023/06/09 11:10:14;;;;;;;11.88;6.07;;;;;;;;;;4946454;28;20048;-64
2023/06/09 11:12:46;;;;;;;10.15;5.00;;;;;;;;;;4949855;29;20106;-62
2023/06/09 11:15:13;;;;;;;10.07;5.32;;;;;;;;;;4946481;29;20054;-61
2023/06/09 11:17:40;;;;;;;12.00;6.00;;;;;;;;;;4947234;29;20047;-60
2023/06/09 11:20:09;;;;;;;14.75;5.35;;;;;;;;;;4952408;29;20049;-62
2023/06/09 11:22:44;;;;;;;11.23;5.13;;;;;;;;;;4933477;29;20090;-62
2023/06/09 11:25:33;;;;;;;12.25;5.22;;;;;;;;;;4925143;29;20047;-61
2023/06/09 11:27:59;;;;;;;9.95;4.75;;;;;;;;;;4940054;28;20105;-62
2023/06/09 11:30:32;;;;;;;10.30;5.18;;;;;;;;;;4950368;29;20162;-62
2023/06/09 11:33:04;;;;;;;12.77;5.45;;;;;;;;;;4933976;29;20050;-61
2023/06/09 11:35:39;;;;;;;13.07;5.38;;;;;;;;;;4950172;29;20075;-62
2023/06/09 11:38:08;;;;;;;11.38;5.88;;;;;;;;;;4929488;29;20489;-62
2023/06/09 11:40:35;;;;;;;15.02;5.80;;;;;;;;;;4942939;29;20414;-62
2023/06/09 11:43:02;;;;;;;14.45;5.60;;;;;;;;;;4943369;29;20086;-62
2023/06/09 11:45:31;;;;;;;16.02;6.20;;;;;;;;;;4950696;28;20078;-62
2023/06/09 11:48:04;;;;;;;12.25;6.10;;;;;;;;;;4952107;29;20043;-62
2023/06/09 11:50:45;;;;;;;12.40;5.93;;;;;;;;;;4949554;29;20104;-61
2023/06/09 11:53:17;;;;;;;14.60;7.15;;;;;;;;;;4953109;29;20031;-61
2023/06/09 11:55:43;;;;;;;15.63;5.45;;;;;;;;;;4946384;29;20094;-62
2023/06/09 11:58:09;;;;;;;15.27;5.60;;;;;;;;;;4942360;28;20044;-61
2023/06/09 12:00:39;;;;;;;27.20;7.97;;;;;;;;;;4949793;29;20043;-61
2023/06/09 12:03:06;;;;;;;19.25;6.03;;;;;;;;;;4951461;28;20051;-62
2023/06/09 12:05:32;;;;;;;15.05;6.15;;;;;;;;;;4952055;29;20035;-60
2023/06/09 12:08:00;;;;;;;17.60;5.85;;;;;;;;;;4944940;28;20039;-60
2023/06/09 12:10:28;;;;;;;13.00;6.25;;;;;;;;;;4952322;29;20118;-62
2023/06/09 12:12:56;;;;;;;11.43;5.05;;;;;;;;;;4951299;29;20067;-61
2023/06/09 12:15:24;;;;;;;215.98;35.92;;;;;;;;;;4952359;29;20043;-62
2023/06/09 12:17:58;;;;;;;14.88;5.38;;;;;;;;;;4951209;29;20050;-62
2023/06/09 12:20:32;;;;;;;14.63;6.20;;;;;;;;;;4949253;28;20047;-62
2023/06/09 12:23:00;;;;;;;12.63;5.43;;;;;;;;;;4925981;29;20036;-61
2023/06/09 12:25:33;;;;;;;12.80;6.10;;;;;;;;;;4949609;28;20409;-61
2023/06/09 12:28:19;;;;;;;13.25;5.38;;;;;;;;;;4934458;29;20047;-59
2023/06/09 12:30:53;;;;;;;10.43;5.18;;;;;;;;;;4946303;28;20075;-61
2023/06/09 12:33:21;;;;;;;13.70;5.60;;;;;;;;;;4943185;28;20046;-62
2023/06/09 12:35:53;;;;;;;9.50;5.47;;;;;;;;;;4950038;29;20042;-62
2023/06/09 12:38:23;;;;;;;12.07;6.38;;;;;;;;;;4930187;29;20047;-62
2023/06/09 12:40:59;;;;;;;12.43;5.70;;;;;;;;;;4949467;29;20046;-61
2023/06/09 12:43:26;;;;;;;13.77;5.70;;;;;;;;;;4948452;28;20098;-61
2023/06/09 12:45:57;;;;;;;34.58;8.13;;;33.20;99.90;;;;;;4947933;29;20054;-61
2023/06/09 12:48:23;;;;;;;28.85;7.60;;;35.30;99.90;;;;;;4951763;29;20437;-61
2023/06/09 12:50:49;;;;;;;47.25;10.60;;;36.60;99.90;;;;;;4945337;29;20395;-61
2023/06/09 12:53:15;;;;;;;16.75;6.88;;;38.10;99.90;;;;;;4945145;28;20045;-62
2023/06/09 12:55:41;;;;;;;13.80;5.03;;;39.40;99.90;;;;;;4941425;28;20036;-63
2023/06/09 12:58:09;;;;;;;12.63;5.28;;;40.80;96.00;;;;;;4928603;29;20053;-62
2023/06/09 13:00:35;;;;;;;16.75;5.47;;;41.30;77.40;;;;;;4945776;28;20043;-63
2023/06/09 13:03:03;;;;;;;16.73;5.78;;;42.40;66.00;;;;;;4934314;29;20376;-63
2023/06/09 13:05:33;;;;;;;17.33;5.35;;;43.20;49.80;;;;;;4948988;28;20089;-62
2023/06/09 13:08:04;;;;;;;12.70;5.03;;;43.60;9.60;;;;;;4952059;28;20138;-62
2023/06/09 13:10:30;;;;;;;13.77;6.28;;;44.10;21.10;;;;;;4946875;28;20054;-61
2023/06/09 13:12:56;;;;;;;23.10;6.95;;;44.90;13.20;;;;;;4947382;28;20090;-62
2023/06/09 13:15:23;;;;;;;14.63;5.45;;;45.40;1.00;;;;;;4928210;29;20057;-61
2023/06/09 13:17:51;;;;;;;15.73;5.53;;;45.90;1.00;;;;;;4949738;28;20114;-62
2023/06/09 13:20:17;;;;;;;10.63;4.85;;;46.30;1.00;;;;;;4934394;29;20508;-61
2023/06/09 13:22:44;;;;;;;10.93;4.60;;;46.50;1.00;;;;;;4947024;29;20059;-62
2023/06/09 13:25:10;;;;;;;9.68;4.22;;;46.50;1.00;;;;;;4932566;29;20047;-62
2023/06/09 13:27:39;;;;;;;11.07;4.13;;;46.80;1.00;;;;;;4947219;28;20524;-63
2023/06/09 13:30:06;;;;;;;51.40;12.15;;;47.10;1.00;;;;;;4933416;29;20055;-61
2023/06/09 13:32:32;;;;;;;11.55;4.63;;;47.40;1.00;;;;;;4945121;29;20096;-62
2023/06/09 13:34:58;;;;;;;10.93;4.32;;;47.60;1.00;;;;;;4951241;28;20032;-63
2023/06/09 13:37:24;;;;;;;10.77;4.65;;;47.70;1.00;;;;;;4927498;29;20042;-62
2023/06/09 13:39:49;;;;;;;9.98;4.20;;;47.70;1.00;;;;;;4934228;29;20046;-62
2023/06/09 13:42:15;;;;;;;10.93;4.60;;;47.80;1.00;;;;;;4947301;29;20134;-63
2023/06/09 13:44:40;;;;;;;28.73;6.78;;;48.00;1.00;;;;;;4950468;29;20094;-61
2023/06/09 13:47:06;;;;;;;57.90;11.35;;;48.10;1.00;;;;;;4933603;29;20051;-62
2023/06/09 13:49:32;;;;;;;11.18;4.40;;;48.10;1.00;;;;;;4947584;29;20469;-61
2023/06/09 13:51:58;;;;;;;14.43;4.95;;;48.40;1.00;;;;;;4950486;28;20123;-62
2023/06/09 13:54:23;;;;;;;10.13;4.60;;;48.50;1.00;;;;;;4950615;29;20046;-62
2023/06/09 13:56:49;;;;;;;11.50;4.45;;;48.20;1.00;;;;;;4933949;29;20031;-62
2023/06/09 13:59:15;;;;;;;14.85;4.80;;;47.90;1.00;;;;;;4944386;29;20127;-63
2023/06/09 14:01:43;;;;;;;10.93;4.60;;;48.30;1.00;;;;;;4949631;29;20043;-62
2023/06/09 14:04:10;;;;;;;8.82;3.78;;;48.60;1.00;;;;;;4947890;28;20043;-63
2023/06/09 14:06:37;;;;;;;10.40;4.70;;;48.20;1.00;;;;;;4943423;28;20077;-62
2023/06/09 14:09:03;;;;;;;9.82;4.35;;;48.20;1.00;;;;;;4928660;28;20047;-63
2023/06/09 14:11:29;;;;;;;10.25;4.13;;;48.70;1.00;;;;;;4937391;29;20043;-64
2023/06/09 14:13:55;;;;;;;10.00;4.53;;;48.60;1.00;;;;;;4931997;28;20044;-63
2023/06/09 14:16:21;;;;;;;9.02;4.68;;;49.00;1.00;;;;;;4949315;29;20032;-63
2023/06/09 14:18:46;;;;;;;9.95;4.28;;;49.30;1.00;;;;;;4951343;29;20105;-62
2023/06/09 14:21:12;;;;;;;9.07;4.00;;;49.30;1.00;;;;;;4952133;28;20553;-62